Currently 68°F in Riverside (Orangecrest), California, USA
68°F
68°F / 58°F
2 mph SW
0.00"
Tuesday, November 21, 2017 7:57 AM PST

Riverside (Orangecrest), California Weather Summary
Last 36 Hours

Temperature Winds Hourly Humidity Dewpoint
Time Report Norm Report Norm Max Gusts Precip. Rpt. Norm Rpt. Norm Pressure
1,2Tue 07:57 AM  68.4°F  59°F  2 mph SW  3 mph  5 mph  0.00"  12%  45%  12°F  37°F  30.15"
Tue 07:00 AM  66.9°F  57°F  calm  1 mph  4 mph  0.00"  13%  51%  12°F  38°F  30.13"
Tue 06:00 AM  58.3°F  55°F  1 mph W  1 mph  6 mph  0.00"  23%  50%  19°F  37°F  30.11"
3Tue 05:57 AM  58.2°F  55°F  1 mph SW  1 mph  5 mph  ----  22%  51%  18°F  37°F  30.11"
Tue 05:00 AM  63.3°F  57°F  1 mph SW  1 mph  6 mph  0.00"  15%  50%  12°F  37°F  30.10"
Tue 04:00 AM  65.0°F  57°F  4 mph W  3 mph  6 mph  0.00"  13%  51%  10°F  38°F  30.08"
Tue 03:00 AM  61.6°F  58°F  4 mph W  2 mph  6 mph  0.00"  17%  45%  14°F  36°F  30.09"
Tue 02:00 AM  63.7°F  59°F  4 mph W  2 mph  8 mph  0.00"  14%  46%  12°F  37°F  30.10"
Tue 01:00 AM  62.7°F  60°F  3 mph W  1 mph  7 mph  0.00"  14%  44%  11°F  37°F  30.08"
Tue 12:00 AM  64.0°F  60°F  3 mph W  2 mph  9 mph  0.00"  16%  46%  14°F  38°F  30.09"
Mon 11:00 PM  64.0°F  61°F  1 mph SW  1 mph  8 mph  0.00"  17%  46%  17°F  39°F  30.09"
Mon 10:00 PM  61.0°F  62°F  4 mph W  1 mph  6 mph  0.00"  24%  45%  22°F  40°F  30.08"
Mon 09:00 PM  60.4°F  63°F  4 mph W  1 mph  7 mph  0.00"  34%  43%  31°F  39°F  30.07"
Mon 08:00 PM  62.5°F  63°F  1 mph W  4 mph  4 mph  0.00"  31%  43%  30°F  40°F  30.07"
Mon 07:00 PM  64.6°F  65°F  2 mph W  4 mph  6 mph  0.00"  28%  41%  29°F  40°F  30.07"
Mon 06:00 PM  65.5°F  66°F  4 mph W  4 mph  7 mph  0.00"  25%  35%  28°F  37°F  30.07"
Mon 05:00 PM  67.4°F  68°F  2 mph SW  5 mph  8 mph  0.00"  21%  31%  24°F  35°F  30.05"
Mon 04:00 PM  70.5°F  71°F  1 mph SW  5 mph  6 mph  0.00"  16%  25%  20°F  32°F  30.05"
Mon 03:00 PM  69.9°F  73°F  3 mph SW  4 mph  9 mph  0.00"  15%  22%  18°F  30°F  30.05"
Mon 02:00 PM  71.2°F  72°F  2 mph SW  5 mph  9 mph  0.00"  14%  22%  17°F  29°F  30.03"
Mon 01:00 PM  70.9°F  72°F  4 mph SW  4 mph  10 mph  0.00"  13%  23%  16°F  31°F  30.05"
Mon 12:00 PM  72.1°F  71°F  5 mph SW  3 mph  8 mph  0.00"  12%  24%  15°F  31°F  30.06"
Mon 11:00 AM  70.6°F  69°F  1 mph SW  4 mph  5 mph  0.00"  13%  28%  15°F  33°F  30.09"
Mon 10:00 AM  68.1°F  65°F  1 mph SW  2 mph  3 mph  0.00"  17%  34%  19°F  35°F  30.10"
Mon 09:00 AM  62.9°F  62°F  calm  3 mph  3 mph  0.00"  21%  43%  20°F  38°F  30.10"
Mon 08:00 AM  57.7°F  60°F  1 mph SW  2 mph  5 mph  0.00"  25%  48%  20°F  40°F  30.08"
Mon 07:00 AM  52.8°F  58°F  2 mph SW  1 mph  6 mph  0.00"  36%  51%  26°F  39°F  30.06"
Mon 06:00 AM  51.6°F  57°F  3 mph W  1 mph  7 mph  0.00"  27%  54%  17°F  39°F  30.03"
Mon 05:00 AM  53.3°F  57°F  3 mph SW  1 mph  7 mph  0.00"  24%  57%  16°F  41°F  30.05"
Mon 04:00 AM  52.6°F  58°F  5 mph W  2 mph  6 mph  0.00"  36%  54%  25°F  41°F  30.05"
Mon 03:00 AM  53.4°F  60°F  4 mph SW  1 mph  6 mph  0.00"  33%  48%  24°F  39°F  30.05"
Mon 02:00 AM  55.5°F  59°F  2 mph W  2 mph  4 mph  0.00"  33%  48%  26°F  39°F  30.06"
Mon 01:00 AM  55.2°F  61°F  calm  1 mph  4 mph  0.00"  36%  45%  27°F  39°F  30.05"
Mon 12:00 AM  56.6°F  61°F  3 mph W  2 mph  4 mph  0.00"  37%  48%  29°F  40°F  30.05"
Sun 11:00 PM  59.1°F  62°F  1 mph SW  1 mph  3 mph  0.00"  41%  47%  34°F  41°F  30.05"
Sun 10:00 PM  60.7°F  63°F  calm  1 mph  none  0.00"  38%  47%  34°F  41°F  30.06"
Sun 09:00 PM  60.7°F  63°F  calm  2 mph  6 mph  0.00"  37%  46%  33°F  42°F  30.07"
Sun 08:00 PM  60.8°F  64°F  3 mph W  4 mph  9 mph  0.00"  36%  46%  33°F  42°F  30.06"

  1. Current weather data. No green row appears if the current weather data is also the high or low for the current day.
  2. High temperature for the current day.
  3. Low temperature for the current day.

The Riverside (Orangecrest), California weather pages are a service of WeatherCurrents.
Copyright ©Tue Nov 21 07:58:16 PST 2017  WeatherCurrents. All rights reserved. - Submit questions and comments - Privacy Policy

This page automatically refreshes every 10 minutes.